< < Back
Terminal Aerodrome Forecast


Current Version              Previous Versions:   1  2  3  4  5  6  7  8  9  

Terminal Aerodrome Forecast

489
FTUS44 KBMX 291737
TAFMGM
TAF
KMGM 291737Z 2918/3018 30006KT P6SM SCT050
     FM300200 00000KT P6SM SKC
     FM301500 34006KT P6SM SKC=

Latest METAR

977
SAUS80 KWBC 292300 RRA
MTRMGM
METAR KMGM 292253Z 03003KT 10SM BKN090 33/16 A3001 RMK AO2 SLP160
T03280156


USA.gov is the U.S. government's official web portal to all federal, state and local government web resources and services.